Time;durP1;ratioP1;P1;durP2;ratioP2;P2;SDS_P1;SDS_P2;PMS_P1;PMS_P2;Temp;Humidity;BMP_temperature;BMP_pressure;BME280_temperature;BME280_humidity;BME280_pressure;Samples;Min_cycle;Max_cycle;Signal;HPM_P1;HPM_P2
2021/01/12 00:00:28;;;;;;;4.30;0.90;;;;;;;;;;5071112;28;20028;-55
2021/01/12 00:02:54;;;;;;;2.42;0.65;;;;;;;;;;5073121;28;20067;-56
2021/01/12 00:05:21;;;;;;;6.03;0.88;;;;;;;;;;5071891;28;20043;-55
2021/01/12 00:07:47;;;;;;;5.28;0.85;;;;;;;;;;5073548;28;20047;-55
2021/01/12 00:10:13;;;;;;;7.13;0.73;;;;;;;;;;5074779;28;20040;-55
2021/01/12 00:12:39;;;;;;;5.80;0.93;;;;;;;;;;5071064;28;20295;-56
2021/01/12 00:15:06;;;;;;;8.30;0.70;;;;;;;;;;5071988;28;20462;-55
2021/01/12 00:17:32;;;;;;;8.25;0.73;;;;;;;;;;5071759;28;20310;-55
2021/01/12 00:19:58;;;;;;;3.58;0.75;;;;;;;;;;5073024;28;20170;-57
2021/01/12 00:22:24;;;;;;;4.95;0.70;;;;;;;;;;5078002;28;20587;-56
2021/01/12 00:24:51;;;;;;;6.70;1.13;;;;;;;;;;5079776;28;20036;-56
2021/01/12 00:27:21;;;;;;;6.13;1.30;;;;;;;;;;5078083;27;20047;-57
2021/01/12 00:29:48;;;;;;;9.23;1.05;;;;;;;;;;5081266;28;20046;-55
2021/01/12 00:32:24;;;;;;;9.05;1.30;;;;;;;;;;5082591;28;20103;-54
2021/01/12 00:34:51;;;;;;;9.23;1.20;;;;;;;;;;5081018;28;20094;-56
2021/01/12 00:37:20;;;;;;;4.97;0.88;;;;;;;;;;5083636;28;20032;-56
2021/01/12 00:39:46;;;;;;;7.65;1.05;;;;;;;;;;5082071;28;20037;-56
2021/01/12 00:42:12;;;;;;;5.05;1.10;;;;;;;;;;5082686;28;20067;-57
2021/01/12 00:44:38;;;;;;;6.85;0.98;;;;;;;;;;5081199;28;20058;-54
2021/01/12 00:47:05;;;;;;;3.28;0.82;;;;;;;;;;5083105;28;20357;-53
2021/01/12 00:49:31;;;;;;;10.75;1.42;;;;;;;;;;5083567;28;20052;-55
2021/01/12 00:51:57;;;;;;;10.27;1.73;;;;;;;;;;5082627;28;20052;-53
2021/01/12 00:54:23;;;;;;;5.53;1.10;;;;;;;;;;5078259;28;20035;-55
2021/01/12 00:56:50;;;;;;;5.90;1.13;;;;;;;;;;5081115;28;20055;-55
2021/01/12 00:59:16;;;;;;;7.88;1.80;;;;;;;;;;5079938;28;20036;-56
2021/01/12 01:01:43;;;;;;;10.43;1.55;;;;;;;;;;5081210;28;20086;-54
2021/01/12 01:04:09;;;;;;;6.25;1.48;;;;;;;;;;5081305;28;20912;-56
2021/01/12 01:06:35;;;;;;;7.95;1.23;;;;;;;;;;5081070;28;20052;-57
2021/01/12 01:09:01;;;;;;;6.20;1.45;;;;;;;;;;5083437;28;20040;-57
2021/01/12 01:11:27;;;;;;;5.55;1.45;;;;;;;;;;5080287;28;20419;-58
2021/01/12 01:13:53;;;;;;;7.53;1.10;;;;;;;;;;5082895;28;20040;-53
2021/01/12 01:16:19;;;;;;;14.65;1.17;;;;;;;;;;5081312;27;20580;-56
2021/01/12 01:18:45;;;;;;;6.25;1.20;;;;;;;;;;5083555;28;20047;-54
2021/01/12 01:21:12;;;;;;;7.07;1.20;;;;;;;;;;5082419;28;20048;-54
2021/01/12 01:23:38;;;;;;;9.48;2.28;;;;;;;;;;5079700;28;20045;-56
2021/01/12 01:26:04;;;;;;;6.25;1.60;;;;;;;;;;5080759;28;20047;-56
2021/01/12 01:28:30;;;;;;;9.05;2.67;;;;;;;;;;5081285;28;20044;-56
2021/01/12 01:30:56;;;;;;;23.10;6.97;;;;;;;;;;5082063;28;20097;-56
2021/01/12 01:33:23;;;;;;;15.27;4.70;;;;;;;;;;5081047;28;20037;-57
2021/01/12 01:35:49;;;;;;;16.42;4.18;;;;;;;;;;5080093;28;20081;-55
2021/01/12 01:38:15;;;;;;;10.82;2.70;;;;;;;;;;5082649;28;20172;-54
2021/01/12 01:40:41;;;;;;;5.95;1.95;;;;;;;;;;5080294;28;20039;-56
2021/01/12 01:43:07;;;;;;;12.60;2.08;;;;;;;;;;5081913;28;20055;-57
2021/01/12 01:45:33;;;;;;;8.82;1.80;;;;;;;;;;5080312;28;20223;-56
2021/01/12 01:48:02;;;;;;;8.00;1.80;;;;;;;;;;5082315;28;20516;-56
2021/01/12 01:50:28;;;;;;;6.25;1.92;;;;;;;;;;5082315;28;20075;-56
2021/01/12 01:52:55;;;;;;;8.75;1.90;;;;;;;;;;5082294;28;20512;-56
2021/01/12 01:55:22;;;;;;;10.40;2.33;;;;;;;;;;5079286;28;20066;-56
2021/01/12 01:57:48;;;;;;;9.57;2.30;;;;;;;;;;5080269;28;20040;-56
2021/01/12 02:00:16;;;;;;;12.85;2.30;;;;;;;;;;5081184;28;20040;-56
2021/01/12 02:03:02;;;;;;;6.90;2.13;;;;;;;;;;5080526;28;20040;-57
2021/01/12 02:05:29;;;;;;;6.95;2.03;;;;;;;;;;5082229;28;20040;-57
2021/01/12 02:07:58;;;;;;;8.10;1.80;;;;;;;;;;5070751;28;20056;-57
2021/01/12 02:10:24;;;;;;;11.35;1.80;;;;;;;;;;5083875;28;20046;-57
2021/01/12 02:13:13;;;;;;;9.75;1.88;;;;;;;;;;5081850;28;20060;-57
2021/01/12 02:15:39;;;;;;;5.82;1.30;;;;;;;;;;5078665;28;20596;-57
2021/01/12 02:18:06;;;;;;;5.00;1.02;;;;;;;;;;5080765;27;20040;-59
2021/01/12 02:20:33;;;;;;;7.93;1.08;;;;;;;;;;5079868;28;20036;-57
2021/01/12 02:23:03;;;;;;;3.05;0.98;;;;;;;;;;5079060;28;20048;-57
2021/01/12 02:25:34;;;;;;;6.95;0.85;;;;;;;;;;5077466;28;20036;-57
2021/01/12 02:28:00;;;;;;;5.22;1.00;;;;;;;;;;5082396;28;20028;-57
2021/01/12 02:30:26;;;;;;;3.55;0.80;;;;;;;;;;5080439;28;20043;-55
2021/01/12 02:32:52;;;;;;;7.22;1.63;;;;;;;;;;5081080;27;20045;-57
2021/01/12 02:35:20;;;;;;;3.65;0.80;;;;;;;;;;5079142;28;20048;-56
2021/01/12 02:37:46;;;;;;;2.88;0.75;;;;;;;;;;5082163;28;20040;-58
2021/01/12 02:40:13;;;;;;;3.85;0.70;;;;;;;;;;5085914;28;20139;-58
2021/01/12 02:42:41;;;;;;;3.60;0.75;;;;;;;;;;5083149;28;20172;-58
2021/01/12 02:45:07;;;;;;;5.07;0.80;;;;;;;;;;5084464;28;20047;-58
2021/01/12 02:47:35;;;;;;;3.58;0.60;;;;;;;;;;5083136;28;20052;-57
2021/01/12 02:50:01;;;;;;;5.20;0.80;;;;;;;;;;5070679;28;20040;-57
2021/01/12 02:52:27;;;;;;;3.03;0.68;;;;;;;;;;5082599;28;20044;-57
2021/01/12 02:54:52;;;;;;;2.58;0.52;;;;;;;;;;5085381;28;20035;-56
2021/01/12 02:57:18;;;;;;;2.33;0.68;;;;;;;;;;5084837;28;20079;-58
2021/01/12 02:59:44;;;;;;;3.25;0.80;;;;;;;;;;5081266;28;20088;-57
2021/01/12 03:02:10;;;;;;;2.50;0.60;;;;;;;;;;5084775;28;20103;-59
2021/01/12 03:04:39;;;;;;;2.70;0.70;;;;;;;;;;5082494;28;20036;-58
2021/01/12 03:07:07;;;;;;;3.92;0.80;;;;;;;;;;5083298;28;20052;-58
2021/01/12 03:09:33;;;;;;;5.82;0.90;;;;;;;;;;5081500;28;20043;-55
2021/01/12 03:11:58;;;;;;;3.75;1.30;;;;;;;;;;5084565;28;20040;-55
2021/01/12 03:14:25;;;;;;;4.00;0.90;;;;;;;;;;5080812;28;20032;-56
2021/01/12 03:16:53;;;;;;;3.38;1.13;;;;;;;;;;5066411;28;20961;-54
2021/01/12 03:19:19;;;;;;;3.35;0.80;;;;;;;;;;5082217;28;20037;-57
2021/01/12 03:21:45;;;;;;;2.55;0.70;;;;;;;;;;5082939;28;20486;-57
2021/01/12 03:24:11;;;;;;;2.25;0.60;;;;;;;;;;5081563;28;20040;-55
2021/01/12 03:26:37;;;;;;;4.47;0.70;;;;;;;;;;5082184;27;20118;-56
2021/01/12 03:29:03;;;;;;;3.20;0.70;;;;;;;;;;5083163;28;20037;-58
2021/01/12 03:31:29;;;;;;;3.35;0.80;;;;;;;;;;5067900;28;20052;-58
2021/01/12 03:33:55;;;;;;;2.08;0.60;;;;;;;;;;5084261;28;20093;-57
2021/01/12 03:36:22;;;;;;;2.88;0.73;;;;;;;;;;5082169;28;20056;-57
2021/01/12 03:38:48;;;;;;;3.05;0.80;;;;;;;;;;5083036;28;20155;-56
2021/01/12 03:41:14;;;;;;;2.15;0.50;;;;;;;;;;5082306;28;20041;-57
2021/01/12 03:43:40;;;;;;;4.00;0.73;;;;;;;;;;5083403;28;20032;-55
2021/01/12 03:46:06;;;;;;;3.70;0.75;;;;;;;;;;5082597;28;20052;-57
2021/01/12 03:48:32;;;;;;;4.43;0.70;;;;;;;;;;5082470;28;20036;-57
2021/01/12 03:50:58;;;;;;;2.83;0.80;;;;;;;;;;5081966;28;20116;-54
2021/01/12 03:53:24;;;;;;;2.42;0.70;;;;;;;;;;5082125;28;20079;-57
2021/01/12 03:55:50;;;;;;;3.70;0.77;;;;;;;;;;5081572;28;20060;-57
2021/01/12 03:58:16;;;;;;;2.97;0.73;;;;;;;;;;5082521;28;20066;-57
2021/01/12 04:00:42;;;;;;;2.65;0.80;;;;;;;;;;5083100;28;20044;-58
2021/01/12 04:03:08;;;;;;;6.50;0.80;;;;;;;;;;5082556;28;20534;-56
2021/01/12 04:05:34;;;;;;;2.03;0.50;;;;;;;;;;5081191;28;20036;-57
2021/01/12 04:08:00;;;;;;;4.18;0.65;;;;;;;;;;5083863;28;20039;-55
2021/01/12 04:10:26;;;;;;;2.95;0.70;;;;;;;;;;5084082;28;20061;-57
2021/01/12 04:12:52;;;;;;;1.95;0.60;;;;;;;;;;5083603;28;20115;-58
2021/01/12 04:15:18;;;;;;;3.20;0.50;;;;;;;;;;5082947;28;20052;-56
2021/01/12 04:17:44;;;;;;;2.95;0.82;;;;;;;;;;5082684;28;20143;-57
2021/01/12 04:20:11;;;;;;;2.20;0.70;;;;;;;;;;5081221;28;20043;-57
2021/01/12 04:22:37;;;;;;;2.30;0.70;;;;;;;;;;5082245;28;20036;-57
2021/01/12 04:25:04;;;;;;;5.38;0.82;;;;;;;;;;5081663;28;20052;-55
2021/01/12 04:27:30;;;;;;;2.78;0.60;;;;;;;;;;5081872;28;20120;-58
2021/01/12 04:29:55;;;;;;;2.83;0.75;;;;;;;;;;5069493;28;20671;-58
2021/01/12 04:32:21;;;;;;;3.95;0.80;;;;;;;;;;5080925;28;20040;-58
2021/01/12 04:34:47;;;;;;;3.72;0.60;;;;;;;;;;5081641;28;20162;-57
2021/01/12 04:37:13;;;;;;;4.35;0.60;;;;;;;;;;5082218;28;20048;-56
2021/01/12 04:39:39;;;;;;;3.03;0.60;;;;;;;;;;5083453;28;20047;-57
2021/01/12 04:42:05;;;;;;;3.00;0.50;;;;;;;;;;5082333;28;20040;-56
2021/01/12 04:44:31;;;;;;;2.42;0.50;;;;;;;;;;5080777;28;20052;-57
2021/01/12 04:46:57;;;;;;;2.67;0.50;;;;;;;;;;5081123;28;20141;-56
2021/01/12 04:49:23;;;;;;;3.53;0.70;;;;;;;;;;5082001;28;20024;-57
2021/01/12 04:51:48;;;;;;;3.38;0.70;;;;;;;;;;5080965;28;20058;-56
2021/01/12 04:54:14;;;;;;;2.67;0.80;;;;;;;;;;5079237;28;20105;-57
2021/01/12 04:56:42;;;;;;;2.17;0.60;;;;;;;;;;5070914;28;20116;-54
2021/01/12 04:59:08;;;;;;;2.53;0.52;;;;;;;;;;5059140;28;20056;-57
2021/01/12 05:01:34;;;;;;;2.00;0.50;;;;;;;;;;5080150;28;20130;-57
2021/01/12 05:04:03;;;;;;;2.60;0.50;;;;;;;;;;5082773;28;20044;-57
2021/01/12 05:06:29;;;;;;;2.00;0.50;;;;;;;;;;5081127;28;20032;-57
2021/01/12 05:08:55;;;;;;;2.00;0.50;;;;;;;;;;5081362;28;20106;-58
2021/01/12 05:11:31;;;;;;;1.90;0.50;;;;;;;;;;5081494;28;20032;-57
2021/01/12 05:14:00;;;;;;;1.98;0.60;;;;;;;;;;5081238;28;20066;-56
2021/01/12 05:16:26;;;;;;;2.70;0.70;;;;;;;;;;5080598;28;20077;-56
2021/01/12 05:18:53;;;;;;;2.65;0.60;;;;;;;;;;5082150;28;20032;-57
2021/01/12 05:21:19;;;;;;;3.42;0.60;;;;;;;;;;5081261;28;20036;-55
2021/01/12 05:24:05;;;;;;;2.95;0.50;;;;;;;;;;5081598;27;20052;-56
2021/01/12 05:26:34;;;;;;;3.63;0.73;;;;;;;;;;5082209;28;20048;-56
2021/01/12 05:29:01;;;;;;;3.58;0.88;;;;;;;;;;5081015;28;20374;-57
2021/01/12 05:31:27;;;;;;;6.43;0.80;;;;;;;;;;5080845;28;20045;-57
2021/01/12 05:33:53;;;;;;;4.55;0.90;;;;;;;;;;5082053;28;20067;-56
2021/01/12 05:36:20;;;;;;;5.13;1.00;;;;;;;;;;5077714;28;20052;-57
2021/01/12 05:38:47;;;;;;;6.97;1.10;;;;;;;;;;5081378;28;20432;-57
2021/01/12 05:41:13;;;;;;;3.97;1.20;;;;;;;;;;5080446;28;20112;-57
2021/01/12 05:43:40;;;;;;;6.03;1.40;;;;;;;;;;5078290;28;20062;-56
2021/01/12 05:46:10;;;;;;;6.45;1.23;;;;;;;;;;5080513;28;20135;-57
2021/01/12 05:48:37;;;;;;;5.45;1.10;;;;;;;;;;5081171;28;20072;-56
2021/01/12 05:51:04;;;;;;;5.38;1.15;;;;;;;;;;5082011;28;20119;-57
2021/01/12 05:53:42;;;;;;;4.25;1.05;;;;;;;;;;5078217;28;20064;-57
2021/01/12 05:56:11;;;;;;;4.03;1.20;;;;;;;;;;5081163;28;20052;-56
2021/01/12 05:58:40;;;;;;;3.60;1.02;;;;;;;;;;5079225;28;20059;-56
2021/01/12 06:01:07;;;;;;;1.98;0.60;;;;;;;;;;5082338;28;20036;-56
2021/01/12 06:03:33;;;;;;;1.83;0.55;;;;;;;;;;5081285;27;20054;-56
2021/01/12 06:05:59;;;;;;;2.70;0.60;;;;;;;;;;5079907;28;20173;-56
2021/01/12 06:08:26;;;;;;;2.10;0.60;;;;;;;;;;5079432;28;20040;-55
2021/01/12 06:10:53;;;;;;;4.03;0.50;;;;;;;;;;5081029;28;20060;-57
2021/01/12 06:13:19;;;;;;;1.55;0.52;;;;;;;;;;5081814;28;20051;-57
2021/01/12 06:15:47;;;;;;;2.67;0.50;;;;;;;;;;5085643;28;20078;-57
2021/01/12 06:18:16;;;;;;;9.57;1.60;;;;;;;;;;5083831;28;20054;-57
2021/01/12 06:20:56;;;;;;;11.85;2.13;;;;;;;;;;5083800;28;20067;-56
2021/01/12 06:23:48;;;;;;;8.57;1.70;;;;;;;;;;5082612;28;20583;-55
2021/01/12 06:26:15;;;;;;;4.55;1.10;;;;;;;;;;5077483;28;20062;-56
2021/01/12 06:28:44;;;;;;;5.28;1.15;;;;;;;;;;5082813;28;20049;-58
2021/01/12 06:31:10;;;;;;;5.10;1.27;;;;;;;;;;5084323;28;20036;-57
2021/01/12 06:33:36;;;;;;;5.32;1.17;;;;;;;;;;5082319;28;20036;-56
2021/01/12 06:36:03;;;;;;;3.20;0.85;;;;;;;;;;5082251;28;20048;-57
2021/01/12 06:38:29;;;;;;;6.28;1.00;;;;;;;;;;5083088;28;20063;-56
2021/01/12 06:40:57;;;;;;;4.63;0.98;;;;;;;;;;5083707;28;20040;-56
2021/01/12 06:43:28;;;;;;;4.28;1.23;;;;;;;;;;5080960;28;20806;-56
2021/01/12 06:45:55;;;;;;;9.05;1.40;;;;;;;;;;5085368;28;20039;-57
2021/01/12 06:48:21;;;;;;;12.95;1.58;;;;;;;;;;5084830;28;20036;-57
2021/01/12 06:50:47;;;;;;;6.72;1.13;;;;;;;;;;5083996;28;20074;-57
2021/01/12 06:53:13;;;;;;;5.18;1.20;;;;;;;;;;5085431;28;20047;-56
2021/01/12 06:55:39;;;;;;;7.88;1.27;;;;;;;;;;5082329;28;20074;-56
2021/01/12 06:58:09;;;;;;;5.57;1.13;;;;;;;;;;5081971;28;20051;-54
2021/01/12 07:00:35;;;;;;;8.30;2.88;;;;;;;;;;5082366;28;20036;-56
2021/01/12 07:03:01;;;;;;;13.35;3.42;;;;;;;;;;5082970;28;20112;-56
2021/01/12 07:05:45;;;;;;;7.95;3.78;;;;;;;;;;5081354;28;20044;-57
2021/01/12 07:08:11;;;;;;;5.72;2.30;;;;;;;;;;5082247;28;20040;-56
2021/01/12 07:10:47;;;;;;;6.55;1.60;;;;;;;;;;5081274;28;20036;-56
2021/01/12 07:13:13;;;;;;;5.00;1.23;;;;;;;;;;5083653;28;20036;-56
2021/01/12 07:15:46;;;;;;;3.60;1.08;;;;;;;;;;5082288;28;20067;-56
2021/01/12 07:18:12;;;;;;;11.90;1.40;;;;;;;;;;5084172;28;20059;-56
2021/01/12 07:20:39;;;;;;;8.07;1.70;;;;;;;;;;5080627;28;20040;-56
2021/01/12 07:23:09;;;;;;;12.05;3.45;;;;;;;;;;5082747;28;20036;-56
2021/01/12 07:25:39;;;;;;;11.07;4.97;;;;;;;;;;5081381;28;20071;-56
2021/01/12 07:28:09;;;;;;;17.48;6.53;;;;;;;;;;5084367;28;20107;-56
2021/01/12 07:30:36;;;;;;;6.53;1.60;;;;;;;;;;5083581;28;20051;-57
2021/01/12 07:33:03;;;;;;;5.05;1.50;;;;;;;;;;5082625;28;20036;-57
2021/01/12 07:35:30;;;;;;;4.80;1.13;;;;;;;;;;5083171;28;20055;-55
2021/01/12 07:37:56;;;;;;;4.05;0.90;;;;;;;;;;5082307;28;20036;-56
2021/01/12 07:40:22;;;;;;;6.15;1.80;;;;;;;;;;5081669;28;20119;-56
2021/01/12 07:42:55;;;;;;;4.32;1.80;;;;;;;;;;5084937;28;20037;-56
2021/01/12 07:45:25;;;;;;;7.15;2.00;;;;;;;;;;5082257;28;20060;-53
2021/01/12 07:47:52;;;;;;;6.85;1.65;;;;;;;;;;5083721;28;20070;-56
2021/01/12 07:50:18;;;;;;;4.15;1.20;;;;;;;;;;5082444;28;20040;-56
2021/01/12 07:52:44;;;;;;;7.00;1.20;;;;;;;;;;5081624;28;20064;-56
2021/01/12 07:55:10;;;;;;;2.88;1.00;;;;;;;;;;5083250;28;20054;-56
2021/01/12 07:57:37;;;;;;;4.45;1.20;;;;;;;;;;5082251;28;20040;-56
2021/01/12 08:00:07;;;;;;;6.55;1.20;;;;;;;;;;5084555;28;20036;-56
2021/01/12 08:02:33;;;;;;;8.18;1.63;;;;;;;;;;5084249;28;20086;-55
2021/01/12 08:04:59;;;;;;;5.50;1.00;;;;;;;;;;5083320;28;20068;-55
2021/01/12 08:07:25;;;;;;;3.00;0.80;;;;;;;;;;5083848;28;20033;-57
2021/01/12 08:09:53;;;;;;;3.67;1.08;;;;;;;;;;5083434;28;20039;-56
2021/01/12 08:12:19;;;;;;;4.78;1.00;;;;;;;;;;5082128;28;20711;-56
2021/01/12 08:14:45;;;;;;;3.95;1.00;;;;;;;;;;5083696;28;20051;-57
2021/01/12 08:17:11;;;;;;;3.88;1.00;;;;;;;;;;5083001;28;20049;-56
2021/01/12 08:19:37;;;;;;;2.97;0.90;;;;;;;;;;5082770;28;20100;-55
2021/01/12 08:22:03;;;;;;;4.30;1.23;;;;;;;;;;5083480;28;20040;-57
2021/01/12 08:24:30;;;;;;;5.18;1.00;;;;;;;;;;5083096;28;20096;-57
2021/01/12 08:26:56;;;;;;;3.72;1.48;;;;;;;;;;5084965;28;20194;-57
2021/01/12 08:29:25;;;;;;;3.35;1.10;;;;;;;;;;5081653;28;20058;-56
2021/01/12 08:31:54;;;;;;;3.50;0.90;;;;;;;;;;5081812;28;20096;-57
2021/01/12 08:34:23;;;;;;;10.77;1.42;;;;;;;;;;5083001;28;20039;-56
2021/01/12 08:36:50;;;;;;;5.22;1.10;;;;;;;;;;5081035;28;20162;-57
2021/01/12 08:39:16;;;;;;;4.90;0.88;;;;;;;;;;5082717;28;20351;-57
2021/01/12 08:41:44;;;;;;;2.60;0.80;;;;;;;;;;5082067;28;20052;-57
2021/01/12 08:44:11;;;;;;;5.05;0.70;;;;;;;;;;5082612;28;20040;-57
2021/01/12 08:46:37;;;;;;;2.60;0.70;;;;;;;;;;5084685;28;20074;-57
2021/01/12 08:49:03;;;;;;;3.15;0.70;;;;;;;;;;5067894;28;20032;-57
2021/01/12 08:51:33;;;;;;;2.65;0.77;;;;;;;;;;5081258;28;20059;-55
2021/01/12 08:53:59;;;;;;;2.97;0.73;;;;;;;;;;5081177;28;20067;-57
2021/01/12 08:56:25;;;;;;;2.03;0.70;;;;;;;;;;5081666;28;20040;-56
2021/01/12 08:59:01;;;;;;;3.85;0.80;;;;;;;;;;5081353;28;20045;-57
2021/01/12 09:01:28;;;;;;;4.93;0.88;;;;;;;;;;5068751;28;20036;-56
2021/01/12 09:04:07;;;;;;;3.33;0.60;;;;;;;;;;5080971;27;20036;-57
2021/01/12 09:06:33;;;;;;;2.15;0.80;;;;;;;;;;5082419;28;20047;-57
2021/01/12 09:09:06;;;;;;;2.33;0.75;;;;;;;;;;5082724;28;20138;-57
2021/01/12 09:11:35;;;;;;;2.87;1.13;;;;;;;;;;5082342;28;20040;-57
2021/01/12 09:14:05;;;;;;;2.72;0.60;;;;;;;;;;5082520;28;20340;-57
2021/01/12 09:16:31;;;;;;;2.30;0.70;;;;;;;;;;5083099;28;20048;-56
2021/01/12 09:18:57;;;;;;;1.95;0.60;;;;;;;;;;5083659;28;20054;-57
2021/01/12 09:21:23;;;;;;;2.53;0.65;;;;;;;;;;5082719;28;20033;-57
2021/01/12 09:23:49;;;;;;;4.20;0.80;;;;;;;;;;5082742;28;20040;-56
2021/01/12 09:26:19;;;;;;;4.63;0.95;;;;;;;;;;5082658;28;20047;-56
2021/01/12 09:28:45;;;;;;;2.88;0.70;;;;;;;;;;5081451;28;20047;-57
2021/01/12 09:31:13;;;;;;;2.00;0.65;;;;;;;;;;5082987;28;20036;-56
2021/01/12 09:33:40;;;;;;;2.53;0.68;;;;;;;;;;5080629;28;20055;-57
2021/01/12 09:36:07;;;;;;;2.67;0.93;;;;;;;;;;5082670;28;20101;-57
2021/01/12 09:38:40;;;;;;;2.83;0.60;;;;;;;;;;5082497;28;20064;-57
2021/01/12 09:41:07;;;;;;;3.53;0.80;;;;;;;;;;5081538;28;20796;-55
2021/01/12 09:43:33;;;;;;;3.55;0.80;;;;;;;;;;5081276;28;20045;-57
2021/01/12 09:45:59;;;;;;;4.28;1.05;;;;;;;;;;5083220;28;20109;-56
2021/01/12 09:48:25;;;;;;;2.90;0.80;;;;;;;;;;5081306;28;20032;-57
2021/01/12 09:50:51;;;;;;;3.50;0.70;;;;;;;;;;5081743;28;20043;-56
2021/01/12 09:53:17;;;;;;;2.50;0.70;;;;;;;;;;5081979;28;20032;-55
2021/01/12 09:55:43;;;;;;;5.53;0.80;;;;;;;;;;5081979;28;20064;-56
2021/01/12 09:58:09;;;;;;;3.10;0.85;;;;;;;;;;5081505;28;20056;-56
2021/01/12 10:00:35;;;;;;;2.60;0.70;;;;;;;;;;5079746;28;20040;-56
2021/01/12 10:03:01;;;;;;;4.70;0.60;;;;;;;;;;5081936;28;20950;-56
2021/01/12 10:05:27;;;;;;;4.18;0.90;;;;;;;;;;5080973;28;20040;-57
2021/01/12 10:07:52;;;;;;;3.67;0.80;;;;;;;;;;5081555;28;20161;-56
2021/01/12 10:10:18;;;;;;;2.53;0.70;;;;;;;;;;5083360;28;20096;-57
2021/01/12 10:12:44;;;;;;;2.90;0.70;;;;;;;;;;5082319;28;20032;-56
2021/01/12 10:15:10;;;;;;;2.60;0.70;;;;;;;;;;5081645;28;20036;-54
2021/01/12 10:17:36;;;;;;;2.30;0.60;;;;;;;;;;5081637;28;20508;-57
2021/01/12 10:20:02;;;;;;;2.67;0.80;;;;;;;;;;5082091;28;20032;-56
2021/01/12 10:22:28;;;;;;;6.60;1.10;;;;;;;;;;5079561;28;20074;-56
2021/01/12 10:24:57;;;;;;;2.28;0.70;;;;;;;;;;5080687;28;20037;-56
2021/01/12 10:27:23;;;;;;;2.50;0.70;;;;;;;;;;5080769;28;20101;-57
2021/01/12 10:32:24;;;;;;;4.88;1.38;;;;;;;;;;4802302;23;20061;-55
2021/01/12 10:34:50;;;;;;;3.17;1.08;;;;;;;;;;4969580;23;20727;-56
2021/01/12 10:37:16;;;;;;;4.03;1.20;;;;;;;;;;4980831;28;20064;-55
2021/01/12 10:39:42;;;;;;;4.05;0.80;;;;;;;;;;4981138;28;20034;-55
2021/01/12 10:42:08;;;;;;;3.88;0.90;;;;;;;;;;4980947;28;20038;-56
2021/01/12 10:44:34;;;;;;;2.67;0.70;;;;;;;;;;4979220;28;20045;-56
2021/01/12 10:47:00;;;;;;;4.15;0.80;;;;;;;;;;4981118;28;20039;-56
2021/01/12 10:49:26;;;;;;;2.90;1.02;;;;;;;;;;4981674;28;20489;-56
2021/01/12 10:51:59;;;;;;;3.00;0.80;;;;;;;;;;4983040;28;20253;-56
2021/01/12 10:54:25;;;;;;;3.50;1.20;;;;;;;;;;4981865;28;20070;-56
2021/01/12 10:56:51;;;;;;;5.97;0.90;;;;;;;;;;4981402;28;20412;-57
2021/01/12 10:59:17;;;;;;;3.40;0.70;;;;;;;;;;4983647;28;20414;-56
2021/01/12 11:01:43;;;;;;;4.20;0.82;;;;;;;;;;4984288;28;20046;-58
2021/01/12 11:04:09;;;;;;;3.28;1.10;;;;;;;;;;4991254;28;20054;-57
2021/01/12 11:06:40;;;;;;;3.40;1.30;;;;;;;;;;4991493;28;20061;-56
2021/01/12 11:09:06;;;;;;;6.38;0.98;;;;;;;;;;4977623;28;20108;-57
2021/01/12 11:11:35;;;;;;;5.20;0.98;;;;;;;;;;4992370;28;20042;-57
2021/01/12 11:14:06;;;;;;;3.15;0.80;;;;;;;;;;4992770;28;20045;-56
2021/01/12 11:16:38;;;;;;;2.53;0.73;;;;;;;;;;4992323;28;20415;-56
2021/01/12 11:19:05;;;;;;;3.50;0.95;;;;;;;;;;4993242;28;20064;-56
2021/01/12 11:21:31;;;;;;;3.17;0.80;;;;;;;;;;4990859;28;20506;-57
2021/01/12 11:23:57;;;;;;;2.40;0.70;;;;;;;;;;4991027;28;20049;-56
2021/01/12 11:26:30;;;;;;;3.35;0.90;;;;;;;;;;4992998;28;20113;-56
2021/01/12 11:28:56;;;;;;;2.83;0.75;;;;;;;;;;4992777;28;20042;-57
2021/01/12 11:31:22;;;;;;;3.30;0.88;;;;;;;;;;4992117;28;20046;-57
2021/01/12 11:33:48;;;;;;;3.38;0.90;;;;;;;;;;4992167;28;20105;-55
2021/01/12 11:36:14;;;;;;;4.55;0.98;;;;;;;;;;4992253;28;20046;-58
2021/01/12 11:38:40;;;;;;;3.60;0.90;;;;;;;;;;4991967;28;20037;-56
2021/01/12 11:41:10;;;;;;;3.30;1.02;;;;;;;;;;4993012;28;20042;-57
2021/01/12 11:43:36;;;;;;;6.78;1.13;;;;;;;;;;4991284;28;20735;-56
2021/01/12 11:46:02;;;;;;;6.03;0.80;;;;;;;;;;4992745;28;20374;-57
2021/01/12 11:48:28;;;;;;;2.88;0.75;;;;;;;;;;4994358;28;20786;-55
2021/01/12 11:50:54;;;;;;;3.25;0.90;;;;;;;;;;4992732;28;20038;-57
2021/01/12 11:53:20;;;;;;;2.80;0.80;;;;;;;;;;4991526;28;20061;-57
2021/01/12 11:55:46;;;;;;;3.15;0.82;;;;;;;;;;4993443;28;20099;-57
2021/01/12 11:58:11;;;;;;;3.25;0.82;;;;;;;;;;4994563;28;20056;-58
2021/01/12 12:00:38;;;;;;;3.78;1.00;;;;;;;;;;4991055;28;20688;-56
2021/01/12 12:03:04;;;;;;;3.92;1.30;;;;;;;;;;4993743;28;20037;-56
2021/01/12 12:05:31;;;;;;;3.67;1.10;;;;;;;;;;4990154;28;20084;-58
2021/01/12 12:07:56;;;;;;;5.60;1.40;;;;;;;;;;4992131;28;20149;-57
2021/01/12 12:10:22;;;;;;;3.53;1.20;;;;;;;;;;4991257;28;20038;-56
2021/01/12 12:12:48;;;;;;;3.25;0.95;;;;;;;;;;4991971;28;20034;-56
2021/01/12 12:15:15;;;;;;;4.30;1.20;;;;;;;;;;4978396;28;20049;-56
2021/01/12 12:17:41;;;;;;;3.35;1.10;;;;;;;;;;4991555;28;20054;-56
2021/01/12 12:20:07;;;;;;;3.63;1.10;;;;;;;;;;4993234;28;20092;-57
2021/01/12 12:22:33;;;;;;;4.22;1.20;;;;;;;;;;4990568;28;20049;-57
2021/01/12 12:24:59;;;;;;;3.53;1.15;;;;;;;;;;4992929;28;20144;-57
2021/01/12 12:27:25;;;;;;;4.05;0.85;;;;;;;;;;4990611;28;20620;-57
2021/01/12 12:29:51;;;;;;;3.25;1.13;;;;;;;;;;4991905;28;20034;-57
2021/01/12 12:32:17;;;;;;;3.72;1.02;;;;;;;;;;4991115;28;20034;-55
2021/01/12 12:34:42;;;;;;;3.38;0.90;;;;;;;;;;4991536;28;22036;-56
2021/01/12 12:37:11;;;;;;;5.32;1.00;;;;;;;;;;4994088;28;20469;-56
2021/01/12 12:39:38;;;;;;;4.60;0.80;;;;;;;;;;4992308;28;20083;-57
2021/01/12 12:42:04;;;;;;;2.50;0.70;;;;;;;;;;4991772;28;20057;-55
2021/01/12 12:44:32;;;;;;;2.70;0.82;;;;;;;;;;4990341;28;20053;-57
2021/01/12 12:46:58;;;;;;;2.97;0.90;;;;;;;;;;4990822;28;20629;-57
2021/01/12 12:49:24;;;;;;;2.97;0.85;;;;;;;;;;4991093;28;20513;-57
2021/01/12 12:51:50;;;;;;;2.90;0.98;;;;;;;;;;4992780;28;20056;-58
2021/01/12 12:54:16;;;;;;;11.63;1.40;;;;;;;;;;4990864;28;20038;-56
2021/01/12 12:56:42;;;;;;;3.92;1.00;;;;;;;;;;4990126;28;20153;-54
2021/01/12 12:59:08;;;;;;;5.82;1.48;;;;;;;;;;4990399;28;20046;-57
2021/01/12 13:01:34;;;;;;;7.00;2.00;;;;;;;;;;4990316;28;20455;-54
2021/01/12 13:04:00;;;;;;;4.72;1.42;;;;;;;;;;4990975;28;20120;-55
2021/01/12 13:06:26;;;;;;;5.00;1.70;;;;;;;;;;4987946;28;20044;-56
2021/01/12 13:08:53;;;;;;;3.80;1.50;;;;;;;;;;4991677;28;20045;-57
2021/01/12 13:11:18;;;;;;;4.05;1.27;;;;;;;;;;4989661;28;20037;-55
2021/01/12 13:13:44;;;;;;;4.85;1.30;;;;;;;;;;4990718;28;20109;-56
2021/01/12 13:16:11;;;;;;;4.70;1.30;;;;;;;;;;4990614;28;20042;-57
2021/01/12 13:18:42;;;;;;;4.32;1.10;;;;;;;;;;4991024;28;20048;-56
2021/01/12 13:21:08;;;;;;;4.18;1.17;;;;;;;;;;4989609;28;20041;-55
2021/01/12 13:23:34;;;;;;;3.88;1.15;;;;;;;;;;4988099;28;20038;-58
2021/01/12 13:26:00;;;;;;;3.80;1.02;;;;;;;;;;4989104;28;20052;-56
2021/01/12 13:28:26;;;;;;;4.57;1.40;;;;;;;;;;4974132;28;20489;-54
2021/01/12 13:30:52;;;;;;;5.28;1.38;;;;;;;;;;4990349;28;20129;-55
2021/01/12 13:33:18;;;;;;;5.00;1.42;;;;;;;;;;4988309;28;20061;-55
2021/01/12 13:35:44;;;;;;;4.30;0.98;;;;;;;;;;4981488;28;20447;-54
2021/01/12 13:38:10;;;;;;;4.63;0.98;;;;;;;;;;4989616;28;20041;-56
2021/01/12 13:40:37;;;;;;;4.65;1.58;;;;;;;;;;4989568;28;20048;-56
2021/01/12 13:43:02;;;;;;;3.50;1.05;;;;;;;;;;4987062;28;20040;-55
2021/01/12 13:45:29;;;;;;;4.75;1.00;;;;;;;;;;4987314;28;20045;-56
2021/01/12 13:47:55;;;;;;;3.67;0.90;;;;;;;;;;4990737;28;20042;-56
2021/01/12 13:50:22;;;;;;;6.97;1.10;;;;;;;;;;4989076;28;20034;-56
2021/01/12 13:52:51;;;;;;;3.35;0.90;;;;;;;;;;4973791;28;20080;-53
2021/01/12 13:55:18;;;;;;;4.25;0.90;;;;;;;;;;4989561;28;20038;-56
2021/01/12 13:58:10;;;;;;;4.22;0.95;;;;;;;;;;4987279;28;20076;-57
2021/01/12 14:00:37;;;;;;;4.30;1.20;;;;;;;;;;4985405;28;20038;-55
2021/01/12 14:03:03;;;;;;;5.72;1.20;;;;;;;;;;4983304;28;20065;-57
2021/01/12 14:05:30;;;;;;;6.35;1.20;;;;;;;;;;4981818;28;20049;-57
2021/01/12 14:07:56;;;;;;;7.70;1.27;;;;;;;;;;4982823;28;20049;-57
2021/01/12 14:10:22;;;;;;;5.75;1.27;;;;;;;;;;4982148;28;20034;-58
2021/01/12 14:12:51;;;;;;;5.57;1.50;;;;;;;;;;4982427;28;21960;-57
2021/01/12 14:15:17;;;;;;;5.15;1.50;;;;;;;;;;4983567;28;20398;-55
2021/01/12 14:17:46;;;;;;;7.45;1.40;;;;;;;;;;4982663;28;20117;-55
2021/01/12 14:20:12;;;;;;;10.68;1.50;;;;;;;;;;4983002;28;20042;-56
2021/01/12 14:22:40;;;;;;;7.20;1.15;;;;;;;;;;4985299;28;20046;-56
2021/01/12 14:25:06;;;;;;;9.75;1.40;;;;;;;;;;4985882;28;20153;-55
2021/01/12 14:27:36;;;;;;;4.53;0.88;;;;;;;;;;4981472;28;20217;-54
2021/01/12 14:30:02;;;;;;;6.65;1.10;;;;;;;;;;4977327;28;20038;-56
2021/01/12 14:32:28;;;;;;;8.15;1.20;;;;;;;;;;4980692;28;20069;-57
2021/01/12 14:34:56;;;;;;;7.97;1.10;;;;;;;;;;4988894;28;20050;-57
2021/01/12 14:37:24;;;;;;;7.40;1.20;;;;;;;;;;4984012;28;20054;-54
2021/01/12 14:39:54;;;;;;;9.63;1.20;;;;;;;;;;4990607;28;20112;-57
2021/01/12 14:42:23;;;;;;;5.60;1.30;;;;;;;;;;4992046;28;20084;-57
2021/01/12 14:44:49;;;;;;;8.13;1.17;;;;;;;;;;4995357;28;20048;-57